createdAt,value
2022-10-13T00:01:36.231Z,23.30
2022-10-13T00:05:46.895Z,24.63
2022-10-13T00:09:48.632Z,21.87
2022-10-13T00:13:51.155Z,25.33
2022-10-13T00:17:53.042Z,25.27
2022-10-13T00:21:54.817Z,22.83
2022-10-13T00:25:56.482Z,24.93
2022-10-13T00:29:58.336Z,24.03
2022-10-13T00:34:09.310Z,24.20
2022-10-13T00:38:11.857Z,24.57
2022-10-13T00:42:14.033Z,23.80
2022-10-13T00:46:16.125Z,23.70
2022-10-13T00:50:22.755Z,23.47
2022-10-13T00:54:34.862Z,24.77
2022-10-13T00:58:38.539Z,25.17
2022-10-13T01:06:56.549Z,26.90
2022-10-13T01:11:13.333Z,27.13
2022-10-13T01:15:36.863Z,26.40
2022-10-13T01:20:05.804Z,25.47
2022-10-13T01:24:42.846Z,23.73
2022-10-13T01:28:53.542Z,25.60
2022-10-13T01:32:55.189Z,23.80
2022-10-13T01:37:31.771Z,24.20
2022-10-13T01:41:41.359Z,24.83
2022-10-13T01:45:52.983Z,24.13
2022-10-13T01:49:56.739Z,23.57
2022-10-13T01:53:58.723Z,23.30
2022-10-13T01:58:00.395Z,22.63
2022-10-13T02:02:02.034Z,23.70
2022-10-13T02:06:32.271Z,21.07
2022-10-13T02:10:48.918Z,19.73
2022-10-13T02:14:52.362Z,19.60
2022-10-13T02:18:56.537Z,18.30
2022-10-13T02:23:04.072Z,17.27
2022-10-13T02:27:07.108Z,18.03
2022-10-13T02:31:13.334Z,19.87
2022-10-13T02:35:15.224Z,19.50
2022-10-13T02:39:17.902Z,17.90
2022-10-13T02:43:20.349Z,17.83
2022-10-13T02:47:22.097Z,17.33
2022-10-13T02:51:34.079Z,17.53
2022-10-13T02:55:37.941Z,17.20
2022-10-13T02:59:39.634Z,18.37
2022-10-13T03:03:41.616Z,17.13
2022-10-13T03:07:43.307Z,17.50
2022-10-13T03:11:46.900Z,17.40
2022-10-13T03:15:48.634Z,17.40
2022-10-13T03:19:51.340Z,16.47
2022-10-13T03:23:53.030Z,15.80
2022-10-13T03:27:55.964Z,15.20
2022-10-13T03:36:31.149Z,15.67
2022-10-13T03:40:32.962Z,14.73
2022-10-13T03:44:34.626Z,14.30
2022-10-13T03:48:44.761Z,14.27
2022-10-13T03:52:46.856Z,15.93
2022-10-13T03:56:48.564Z,15.23
2022-10-13T04:00:51.468Z,15.53
2022-10-13T04:04:53.194Z,15.97
2022-10-13T04:08:59.467Z,15.47
2022-10-13T04:13:01.236Z,20.50
2022-10-13T04:17:04.191Z,17.27
2022-10-13T04:21:14.702Z,15.47
2022-10-13T04:25:16.419Z,15.43
2022-10-13T04:29:20.044Z,16.83
2022-10-13T04:33:21.799Z,14.57
2022-10-13T04:37:24.146Z,15.03
2022-10-13T04:41:26.133Z,15.03
2022-10-13T04:45:28.622Z,16.00
2022-10-13T04:49:30.812Z,15.10
2022-10-13T04:53:32.835Z,15.67
2022-10-13T04:57:38.216Z,16.87
2022-10-13T05:01:40.091Z,16.00
2022-10-13T05:05:42.278Z,16.70
2022-10-13T05:09:44.282Z,16.57
2022-10-13T05:13:46.554Z,17.13
2022-10-13T05:17:48.197Z,16.20
2022-10-13T05:21:50.084Z,16.33
2022-10-13T05:25:52.180Z,15.00
2022-10-13T05:29:53.890Z,17.23
2022-10-13T05:33:57.014Z,15.00
2022-10-13T05:37:58.770Z,16.20
2022-10-13T05:42:01.061Z,23.23
2022-10-13T05:46:03.418Z,19.00
2022-10-13T05:50:06.584Z,19.60
2022-10-13T05:54:30.966Z,18.47
2022-10-13T05:58:44.566Z,19.90
2022-10-13T06:02:58.689Z,19.53
2022-10-13T06:07:05.843Z,18.90
2022-10-13T06:11:10.827Z,19.73
2022-10-13T06:15:12.647Z,18.27
2022-10-13T06:19:14.879Z,20.33
2022-10-13T06:23:16.643Z,18.70
2022-10-13T06:27:18.805Z,17.40
2022-10-13T06:31:21.707Z,17.03
2022-10-13T06:35:23.770Z,17.60
2022-10-13T06:39:26.461Z,18.00
2022-10-13T06:43:35.671Z,19.33
2022-10-13T06:47:40.707Z,19.00
2022-10-13T06:51:42.343Z,18.33
2022-10-13T06:55:44.075Z,19.57
2022-10-13T06:59:45.911Z,20.50
2022-10-13T07:03:51.811Z,19.23
2022-10-13T07:07:56.690Z,18.63
2022-10-13T07:11:59.813Z,20.40
2022-10-13T07:16:05.791Z,19.88
2022-10-13T07:20:08.242Z,22.13
2022-10-13T07:24:11.891Z,19.27
2022-10-13T07:28:13.923Z,19.80
2022-10-13T07:32:16.976Z,20.07
2022-10-13T07:36:19.452Z,19.23
2022-10-13T07:40:21.207Z,19.98
2022-10-13T07:44:22.953Z,19.58
2022-10-13T07:48:24.718Z,20.17
2022-10-13T07:52:27.630Z,20.17
2022-10-13T07:56:29.358Z,20.77
2022-10-13T08:00:31.103Z,21.20
2022-10-13T08:04:34.510Z,20.95
2022-10-13T08:08:36.383Z,20.37
2022-10-13T08:12:38.137Z,19.42
2022-10-13T08:16:41.828Z,19.20
2022-10-13T08:20:45.123Z,22.20
2022-10-13T08:24:46.783Z,22.48
2022-10-13T08:29:09.611Z,22.52
2022-10-13T08:33:11.776Z,21.83
2022-10-13T08:37:19.299Z,19.50
2022-10-13T08:41:52.602Z,19.58
2022-10-13T08:45:59.948Z,17.75
2022-10-13T08:50:06.933Z,17.67
2022-10-13T08:54:10.729Z,15.68
2022-10-13T08:58:21.030Z,14.02
2022-10-13T09:02:27.317Z,12.85
2022-10-13T09:06:39.807Z,13.50
2022-10-13T09:10:51.925Z,13.33
2022-10-13T09:15:05.192Z,13.43
2022-10-13T09:19:24.784Z,12.27
2022-10-13T09:23:27.469Z,11.05
2022-10-13T09:27:40.959Z,10.85
2022-10-13T09:31:44.103Z,9.38
2022-10-13T09:35:47.360Z,11.40
2022-10-13T09:40:12.908Z,11.82
2022-10-13T09:44:28.083Z,11.07
2022-10-13T09:48:36.592Z,10.70
2022-10-13T09:52:38.386Z,11.13
2022-10-13T09:56:46.147Z,11.48
2022-10-13T10:00:51.207Z,10.35
2022-10-13T10:04:55.081Z,9.25
2022-10-13T10:09:15.787Z,10.93
2022-10-13T10:13:18.532Z,11.27
2022-10-13T10:17:23.624Z,13.57
2022-10-13T10:21:36.963Z,11.13
2022-10-13T10:25:47.307Z,10.65
2022-10-13T10:30:00.321Z,10.68
2022-10-13T10:34:35.173Z,10.73
2022-10-13T10:38:50.568Z,11.48
2022-10-13T10:43:01.059Z,10.60
2022-10-13T10:47:07.652Z,9.65
2022-10-13T10:51:11.269Z,10.55
2022-10-13T10:55:28.234Z,9.10
2022-10-13T11:00:08.822Z,9.02
2022-10-13T11:04:45.462Z,10.40
2022-10-13T11:08:49.279Z,10.15
2022-10-13T11:12:50.967Z,10.77
2022-10-13T11:17:15.714Z,10.82
2022-10-13T11:21:17.515Z,10.13
2022-10-13T11:25:39.289Z,10.52
2022-10-13T11:29:44.199Z,8.93
2022-10-13T11:33:48.098Z,10.18
2022-10-13T11:38:13.978Z,9.98
2022-10-13T11:42:27.137Z,11.10
2022-10-13T11:46:59.784Z,11.32
2022-10-13T11:51:12.584Z,10.18
2022-10-13T11:55:37.858Z,9.90
2022-10-13T11:59:47.269Z,10.38
2022-10-13T12:03:49.032Z,10.38
2022-10-13T12:07:54.722Z,10.38
2022-10-13T12:12:07.378Z,10.00
2022-10-13T12:16:09.687Z,9.95
2022-10-13T12:20:26.834Z,10.65
2022-10-13T12:24:30.475Z,9.57
2022-10-13T12:28:54.795Z,9.75
2022-10-13T12:32:59.909Z,10.38
2022-10-13T12:37:01.794Z,9.32
2022-10-13T12:41:04.068Z,9.60
2022-10-13T12:45:07.178Z,10.00
2022-10-13T12:49:17.859Z,9.18
2022-10-13T12:53:26.834Z,9.98
2022-10-13T12:57:39.456Z,11.13
2022-10-13T13:01:41.558Z,10.20
2022-10-13T13:05:50.869Z,9.18
2022-10-13T13:10:09.339Z,9.82
2022-10-13T13:14:42.621Z,9.38
2022-10-13T13:18:48.946Z,10.57
2022-10-13T13:22:52.324Z,10.65
2022-10-13T13:26:54.056Z,11.13
2022-10-13T13:30:55.751Z,10.57
2022-10-13T13:34:57.422Z,10.00
2022-10-13T13:38:59.394Z,11.50
2022-10-13T13:43:01.733Z,11.25
2022-10-13T13:47:03.531Z,11.20
2022-10-13T13:51:05.441Z,10.90
2022-10-13T13:55:07.657Z,10.93
2022-10-13T13:59:09.395Z,11.02
2022-10-13T14:03:17.101Z,10.82
2022-10-13T14:07:21.243Z,9.95
2022-10-13T14:11:23.220Z,11.30
2022-10-13T14:15:28.725Z,11.13
2022-10-13T14:19:32.305Z,12.27
2022-10-13T14:23:34.170Z,14.05
2022-10-13T14:27:36.785Z,12.57
2022-10-13T14:31:38.452Z,11.85
2022-10-13T14:35:40.287Z,11.65
2022-10-13T14:39:41.903Z,13.50
2022-10-13T14:43:43.913Z,11.90
2022-10-13T14:47:45.720Z,11.80
2022-10-13T14:51:48.790Z,12.38
2022-10-13T14:55:50.715Z,11.25
2022-10-13T14:59:52.404Z,11.90
2022-10-13T15:03:54.419Z,10.27
2022-10-13T15:07:56.282Z,10.27
2022-10-13T15:11:59.304Z,10.93
2022-10-13T15:16:01.214Z,9.55
2022-10-13T15:20:04.713Z,11.27
2022-10-13T15:24:06.581Z,11.25
2022-10-13T15:28:08.257Z,12.25
2022-10-13T15:32:12.781Z,11.57
2022-10-13T15:36:14.857Z,13.57
2022-10-13T15:40:16.949Z,11.40
2022-10-13T15:44:21.024Z,12.07
2022-10-13T15:48:22.884Z,11.48
2022-10-13T15:52:27.764Z,10.85
2022-10-13T15:56:32.699Z,11.23
2022-10-13T16:00:34.373Z,10.88
2022-10-13T16:04:37.614Z,11.80
2022-10-13T16:08:40.761Z,13.43
2022-10-13T16:12:49.506Z,22.63
2022-10-13T16:16:51.488Z,14.38
2022-10-13T16:20:53.200Z,12.77
2022-10-13T16:24:54.963Z,11.02
2022-10-13T16:28:56.944Z,11.15
2022-10-13T16:32:58.995Z,12.43
2022-10-13T16:37:00.686Z,11.90
2022-10-13T16:41:07.713Z,12.80
2022-10-13T16:45:09.758Z,16.05
2022-10-13T16:49:12.698Z,20.30
2022-10-13T16:53:14.503Z,20.67
2022-10-13T16:57:16.151Z,20.15
2022-10-13T17:01:17.976Z,25.23
2022-10-13T17:05:19.718Z,17.83
2022-10-13T17:09:21.467Z,16.92
2022-10-13T17:13:23.166Z,13.88
2022-10-13T17:17:24.869Z,13.35
2022-10-13T17:21:29.138Z,13.43
2022-10-13T17:25:33.987Z,14.98
2022-10-13T17:29:35.681Z,14.52
2022-10-13T17:33:38.901Z,15.18
2022-10-13T17:37:40.737Z,15.18
2022-10-13T17:41:43.199Z,16.77
2022-10-13T17:45:44.910Z,11.68
2022-10-13T17:49:46.767Z,13.63
2022-10-13T17:53:51.558Z,15.75
2022-10-13T17:57:53.490Z,21.70
2022-10-13T18:01:55.403Z,20.35
2022-10-13T18:05:57.163Z,15.43
2022-10-13T18:09:59.026Z,16.63
2022-10-13T18:14:00.854Z,19.20
2022-10-13T18:18:02.590Z,20.45
2022-10-13T18:22:04.296Z,23.65
2022-10-13T18:26:09.218Z,21.08
2022-10-13T18:30:11.690Z,23.17
2022-10-13T18:34:19.069Z,18.02
2022-10-13T18:38:20.746Z,20.63
2022-10-13T18:42:22.770Z,18.42
2022-10-13T18:46:24.453Z,19.13
2022-10-13T18:50:26.426Z,18.98
2022-10-13T18:54:29.005Z,12.27
2022-10-13T18:58:31.543Z,11.98
2022-10-13T19:02:33.483Z,12.65
2022-10-13T19:06:35.588Z,24.75
2022-10-13T19:10:37.404Z,11.52
2022-10-13T19:14:41.311Z,13.07
2022-10-13T19:18:44.329Z,14.27
2022-10-13T19:22:46.041Z,16.42
2022-10-13T19:26:48.109Z,14.90
2022-10-13T19:30:50.346Z,14.18
2022-10-13T19:34:52.326Z,16.92
2022-10-13T19:38:54.865Z,15.68
2022-10-13T19:42:56.594Z,14.95
2022-10-13T19:46:58.949Z,17.02
2022-10-13T19:51:01.636Z,13.80
2022-10-13T19:55:03.900Z,15.13
2022-10-13T19:59:05.722Z,19.80
2022-10-13T20:03:07.827Z,19.10
2022-10-13T20:07:10.886Z,16.08
2022-10-13T20:11:20.669Z,17.45
2022-10-13T20:15:25.221Z,14.43
2022-10-13T20:19:27.054Z,11.98
2022-10-13T20:23:28.837Z,12.32
2022-10-13T20:27:31.694Z,11.48
2022-10-13T20:31:33.443Z,15.02
2022-10-13T20:35:35.162Z,14.75
2022-10-13T20:39:36.957Z,13.85
2022-10-13T20:43:38.975Z,13.55
2022-10-13T20:47:40.866Z,11.68
2022-10-13T20:51:43.200Z,13.57
2022-10-13T20:55:45.482Z,12.63
2022-10-13T20:59:49.173Z,14.35
2022-10-13T21:03:54.996Z,13.98
2022-10-13T21:07:56.623Z,14.18
2022-10-13T21:11:58.290Z,13.32
2022-10-13T21:16:15.453Z,15.73
2022-10-13T21:20:17.213Z,15.80
2022-10-13T21:24:18.925Z,11.80
2022-10-13T21:28:21.924Z,9.52
2022-10-13T21:32:23.648Z,9.90
2022-10-13T21:36:30.168Z,12.15
2022-10-13T21:40:31.887Z,12.38
2022-10-13T21:44:33.587Z,11.80
2022-10-13T21:48:35.445Z,12.32
2022-10-13T21:52:37.302Z,11.75
2022-10-13T21:56:40.167Z,11.13
2022-10-13T22:00:42.032Z,10.90
2022-10-13T22:04:43.713Z,11.07
2022-10-13T22:08:46.883Z,12.23
2022-10-13T22:12:48.776Z,11.02
2022-10-13T22:16:52.125Z,11.40
2022-10-13T22:20:53.852Z,10.88
2022-10-13T22:24:55.527Z,11.23
2022-10-13T22:28:58.670Z,11.48
2022-10-13T22:33:00.669Z,10.00
2022-10-13T22:37:02.369Z,10.32
2022-10-13T22:41:05.659Z,9.67
2022-10-13T22:45:10.801Z,10.18
2022-10-13T22:49:13.508Z,10.18
2022-10-13T22:53:15.475Z,10.95
2022-10-13T22:57:17.262Z,10.88
2022-10-13T23:01:20.089Z,11.10
2022-10-13T23:05:21.768Z,10.63
2022-10-13T23:09:23.515Z,10.50
2022-10-13T23:13:25.546Z,10.27
2022-10-13T23:17:27.285Z,10.80
2022-10-13T23:21:30.358Z,10.93
2022-10-13T23:25:36.525Z,9.63
2022-10-13T23:29:38.375Z,8.35
2022-10-13T23:33:40.611Z,8.32
2022-10-13T23:37:44.331Z,7.47
2022-10-13T23:41:46.120Z,7.30
2022-10-13T23:45:51.728Z,7.67
2022-10-13T23:49:53.435Z,9.07
2022-10-13T23:53:55.575Z,7.90
2022-10-13T23:57:58.839Z,7.37
